This is the latest recevied weather packets stored in our database for station/object DL9LA-13. If no packets are shown the sender has not sent any weather packets the latest 10 day(s).
| Time | Temp. | Humidity | Pressure | Rain* | Wind** | Luminosity | Snow |
|---|---|---|---|---|---|---|---|
| 1778015354 | 16.11° C | 90% | 964 hPa | - | - | - | - |
| 1778014751 | 16.11° C | 88% | 964 hPa | - | - | - | - |
| 1778013543 | 16.67° C | 85% | 963 hPa | - | - | - | - |
| 1778011733 | 17.22° C | 82% | 963 hPa | - | - | - | - |
| 1778010525 | 17.22° C | 82% | 962 hPa | - | - | - | - |
| 1778008111 | 17.78° C | 75% | 962 hPa | - | - | - | - |
| 1778007507 | 17.78° C | 78% | 962 hPa | - | - | - | - |
| 1778006903 | 18.33° C | 74% | 962 hPa | - | - | - | - |
| 1778006300 | 18.33° C | 75% | 961 hPa | - | - | - | - |
| 1778004489 | 17.78° C | 80% | 961 hPa | - | - | - | - |
| 1778003885 | 18.33° C | 78% | 961 hPa | - | - | - | - |
| 1778002074 | 18.89° C | 81% | 962 hPa | - | - | - | - |
| 1778001471 | 18.89° C | 76% | 962 hPa | - | - | - | - |
| 1777999660 | 19.44° C | 60% | 962 hPa | - | - | - | - |
| 1777994830 | 25° C | 33% | 960 hPa | - | - | - | - |
| 1777993020 | 26.11° C | 31% | 960 hPa | - | - | - | - |
| 1777992416 | 26.11° C | 31% | 960 hPa | - | - | - | - |
| 1777991209 | 25.56° C | 30% | 960 hPa | - | - | - | - |
| 1777990001 | 26.67° C | 28% | 960 hPa | - | - | - | - |
| 1777988190 | 26.67° C | 28% | 960 hPa | - | - | - | - |
| 1777986983 | 27.78° C | 27% | 960 hPa | - | - | - | - |
| 1777985776 | 26.67° C | 29% | 960 hPa | - | - | - | - |
| 1777982154 | 26.11° C | 30% | 961 hPa | - | - | - | - |
| 1777981550 | 27.22° C | 29% | 961 hPa | - | - | - | - |
| 1777979136 | 26.11° C | 33% | 962 hPa | - | - | - | - |
* Rain since midnight (hover to see other rain measurements)
** Current wind speed in m/s (hover to see current wind gust speed)